sensor_id;sensor_type;location;lat;lon;timestamp;P1;durP1;ratioP1;P2;durP2;ratioP2
32347;SDS011;18821;44.800;10.326;2022-11-20T00:01:10;100.68;;;42.60;;
32347;SDS011;18821;44.800;10.326;2022-11-20T00:03:40;105.70;;;42.38;;
32347;SDS011;18821;44.800;10.326;2022-11-20T00:06:08;111.93;;;46.20;;
32347;SDS011;18821;44.800;10.326;2022-11-20T00:08:38;94.95;;;38.42;;
32347;SDS011;18821;44.800;10.326;2022-11-20T00:11:09;91.30;;;38.05;;
32347;SDS011;18821;44.800;10.326;2022-11-20T00:13:39;87.38;;;37.00;;
32347;SDS011;18821;44.800;10.326;2022-11-20T00:16:06;102.28;;;39.35;;
32347;SDS011;18821;44.800;10.326;2022-11-20T00:18:35;103.03;;;40.20;;
32347;SDS011;18821;44.800;10.326;2022-11-20T00:21:05;92.20;;;38.63;;
32347;SDS011;18821;44.800;10.326;2022-11-20T00:23:33;102.05;;;40.83;;
32347;SDS011;18821;44.800;10.326;2022-11-20T00:26:06;88.45;;;39.05;;
32347;SDS011;18821;44.800;10.326;2022-11-20T00:28:33;101.85;;;40.00;;
32347;SDS011;18821;44.800;10.326;2022-11-20T00:31:07;86.82;;;37.75;;
32347;SDS011;18821;44.800;10.326;2022-11-20T00:33:36;99.70;;;43.33;;
32347;SDS011;18821;44.800;10.326;2022-11-20T00:36:05;97.65;;;41.85;;
32347;SDS011;18821;44.800;10.326;2022-11-20T00:38:33;90.15;;;38.92;;
32347;SDS011;18821;44.800;10.326;2022-11-20T00:41:07;91.32;;;38.95;;
32347;SDS011;18821;44.800;10.326;2022-11-20T00:43:34;88.22;;;37.00;;
32347;SDS011;18821;44.800;10.326;2022-11-20T00:46:01;84.47;;;35.90;;
32347;SDS011;18821;44.800;10.326;2022-11-20T00:48:32;84.25;;;38.03;;
32347;SDS011;18821;44.800;10.326;2022-11-20T00:50:58;87.50;;;37.22;;
32347;SDS011;18821;44.800;10.326;2022-11-20T00:53:24;83.28;;;35.97;;
32347;SDS011;18821;44.800;10.326;2022-11-20T00:56:00;77.45;;;34.58;;
32347;SDS011;18821;44.800;10.326;2022-11-20T00:58:31;82.88;;;32.38;;
32347;SDS011;18821;44.800;10.326;2022-11-20T01:03:31;74.47;;;33.22;;
32347;SDS011;18821;44.800;10.326;2022-11-20T01:06:01;73.32;;;32.97;;
32347;SDS011;18821;44.800;10.326;2022-11-20T01:08:32;70.07;;;31.20;;
32347;SDS011;18821;44.800;10.326;2022-11-20T01:10:59;72.43;;;32.20;;
32347;SDS011;18821;44.800;10.326;2022-11-20T01:13:30;64.93;;;29.88;;
32347;SDS011;18821;44.800;10.326;2022-11-20T01:16:16;70.53;;;30.15;;
32347;SDS011;18821;44.800;10.326;2022-11-20T01:18:45;68.22;;;29.25;;
32347;SDS011;18821;44.800;10.326;2022-11-20T01:21:14;60.67;;;27.83;;
32347;SDS011;18821;44.800;10.326;2022-11-20T01:23:45;63.47;;;28.33;;
32347;SDS011;18821;44.800;10.326;2022-11-20T01:26:13;64.40;;;29.40;;
32347;SDS011;18821;44.800;10.326;2022-11-20T01:28:41;58.80;;;28.05;;
32347;SDS011;18821;44.800;10.326;2022-11-20T01:33:44;64.82;;;28.38;;
32347;SDS011;18821;44.800;10.326;2022-11-20T01:36:12;58.63;;;28.08;;
32347;SDS011;18821;44.800;10.326;2022-11-20T01:38:38;62.38;;;27.08;;
32347;SDS011;18821;44.800;10.326;2022-11-20T01:41:05;62.92;;;27.25;;
32347;SDS011;18821;44.800;10.326;2022-11-20T01:43:32;63.10;;;28.10;;
32347;SDS011;18821;44.800;10.326;2022-11-20T01:46:15;64.47;;;28.70;;
32347;SDS011;18821;44.800;10.326;2022-11-20T01:51:21;60.42;;;27.33;;
32347;SDS011;18821;44.800;10.326;2022-11-20T01:53:54;70.32;;;30.77;;
32347;SDS011;18821;44.800;10.326;2022-11-20T01:56:24;69.45;;;29.70;;
32347;SDS011;18821;44.800;10.326;2022-11-20T01:58:53;61.85;;;28.80;;
32347;SDS011;18821;44.800;10.326;2022-11-20T02:01:24;61.63;;;26.60;;
32347;SDS011;18821;44.800;10.326;2022-11-20T02:03:49;62.42;;;27.70;;
32347;SDS011;18821;44.800;10.326;2022-11-20T02:06:17;63.03;;;27.85;;
32347;SDS011;18821;44.800;10.326;2022-11-20T02:08:48;56.28;;;26.15;;
32347;SDS011;18821;44.800;10.326;2022-11-20T02:11:14;64.55;;;28.13;;
32347;SDS011;18821;44.800;10.326;2022-11-20T02:13:40;63.78;;;27.70;;
32347;SDS011;18821;44.800;10.326;2022-11-20T02:16:10;57.97;;;26.25;;
32347;SDS011;18821;44.800;10.326;2022-11-20T02:18:42;64.78;;;27.77;;
32347;SDS011;18821;44.800;10.326;2022-11-20T02:26:28;67.13;;;27.48;;
32347;SDS011;18821;44.800;10.326;2022-11-20T02:28:56;59.70;;;26.73;;
32347;SDS011;18821;44.800;10.326;2022-11-20T02:31:23;60.67;;;27.13;;
32347;SDS011;18821;44.800;10.326;2022-11-20T02:33:56;59.70;;;27.80;;
32347;SDS011;18821;44.800;10.326;2022-11-20T02:36:22;59.22;;;26.98;;
32347;SDS011;18821;44.800;10.326;2022-11-20T02:38:51;57.42;;;27.13;;
32347;SDS011;18821;44.800;10.326;2022-11-20T02:41:17;64.13;;;28.70;;
32347;SDS011;18821;44.800;10.326;2022-11-20T02:43:43;62.15;;;27.25;;
32347;SDS011;18821;44.800;10.326;2022-11-20T02:46:09;62.35;;;26.48;;
32347;SDS011;18821;44.800;10.326;2022-11-20T02:48:35;59.45;;;26.20;;
32347;SDS011;18821;44.800;10.326;2022-11-20T02:51:01;60.05;;;25.67;;
32347;SDS011;18821;44.800;10.326;2022-11-20T02:53:27;54.53;;;25.33;;
32347;SDS011;18821;44.800;10.326;2022-11-20T02:55:54;56.03;;;25.25;;
32347;SDS011;18821;44.800;10.326;2022-11-20T02:58:20;59.53;;;24.38;;
32347;SDS011;18821;44.800;10.326;2022-11-20T03:00:46;56.22;;;25.42;;
32347;SDS011;18821;44.800;10.326;2022-11-20T03:03:13;53.33;;;24.65;;
32347;SDS011;18821;44.800;10.326;2022-11-20T03:05:39;50.33;;;23.60;;
32347;SDS011;18821;44.800;10.326;2022-11-20T03:08:05;51.47;;;24.67;;
32347;SDS011;18821;44.800;10.326;2022-11-20T03:10:31;52.47;;;23.15;;
32347;SDS011;18821;44.800;10.326;2022-11-20T03:12:57;54.10;;;23.92;;
32347;SDS011;18821;44.800;10.326;2022-11-20T03:15:23;62.78;;;24.00;;
32347;SDS011;18821;44.800;10.326;2022-11-20T03:17:52;52.08;;;25.60;;
32347;SDS011;18821;44.800;10.326;2022-11-20T03:20:19;51.00;;;24.52;;
32347;SDS011;18821;44.800;10.326;2022-11-20T03:22:45;54.17;;;23.83;;
32347;SDS011;18821;44.800;10.326;2022-11-20T03:25:11;57.28;;;24.73;;
32347;SDS011;18821;44.800;10.326;2022-11-20T03:27:37;54.10;;;23.35;;
32347;SDS011;18821;44.800;10.326;2022-11-20T03:30:03;52.72;;;24.05;;
32347;SDS011;18821;44.800;10.326;2022-11-20T03:32:30;52.72;;;23.80;;
32347;SDS011;18821;44.800;10.326;2022-11-20T03:34:56;51.92;;;23.20;;
32347;SDS011;18821;44.800;10.326;2022-11-20T03:37:24;54.47;;;23.98;;
32347;SDS011;18821;44.800;10.326;2022-11-20T03:39:50;52.92;;;24.05;;
32347;SDS011;18821;44.800;10.326;2022-11-20T03:42:16;54.13;;;24.30;;
32347;SDS011;18821;44.800;10.326;2022-11-20T03:45:00;59.95;;;25.15;;
32347;SDS011;18821;44.800;10.326;2022-11-20T03:47:26;54.00;;;24.70;;
32347;SDS011;18821;44.800;10.326;2022-11-20T03:49:52;56.70;;;23.58;;
32347;SDS011;18821;44.800;10.326;2022-11-20T03:52:17;56.58;;;25.58;;
32347;SDS011;18821;44.800;10.326;2022-11-20T03:54:43;63.05;;;26.25;;
32347;SDS011;18821;44.800;10.326;2022-11-20T03:57:09;62.85;;;26.65;;
32347;SDS011;18821;44.800;10.326;2022-11-20T03:59:35;57.53;;;25.52;;
32347;SDS011;18821;44.800;10.326;2022-11-20T04:02:01;56.00;;;25.02;;
32347;SDS011;18821;44.800;10.326;2022-11-20T04:04:27;61.33;;;26.90;;
32347;SDS011;18821;44.800;10.326;2022-11-20T04:06:53;66.43;;;28.00;;
32347;SDS011;18821;44.800;10.326;2022-11-20T04:09:18;59.63;;;26.65;;
32347;SDS011;18821;44.800;10.326;2022-11-20T04:11:44;59.58;;;27.55;;
32347;SDS011;18821;44.800;10.326;2022-11-20T04:14:14;58.88;;;25.23;;
32347;SDS011;18821;44.800;10.326;2022-11-20T04:16:41;63.22;;;24.85;;
32347;SDS011;18821;44.800;10.326;2022-11-20T04:19:12;56.63;;;25.42;;
32347;SDS011;18821;44.800;10.326;2022-11-20T04:21:41;57.40;;;25.50;;
32347;SDS011;18821;44.800;10.326;2022-11-20T04:24:07;56.50;;;25.85;;
32347;SDS011;18821;44.800;10.326;2022-11-20T04:26:34;58.25;;;25.17;;
32347;SDS011;18821;44.800;10.326;2022-11-20T04:29:00;54.90;;;25.48;;
32347;SDS011;18821;44.800;10.326;2022-11-20T04:31:31;51.15;;;23.90;;
32347;SDS011;18821;44.800;10.326;2022-11-20T04:33:59;53.85;;;24.58;;
32347;SDS011;18821;44.800;10.326;2022-11-20T04:36:29;59.92;;;25.58;;
32347;SDS011;18821;44.800;10.326;2022-11-20T04:38:57;55.60;;;23.85;;
32347;SDS011;18821;44.800;10.326;2022-11-20T04:41:26;59.13;;;24.90;;
32347;SDS011;18821;44.800;10.326;2022-11-20T04:43:55;59.65;;;25.05;;
32347;SDS011;18821;44.800;10.326;2022-11-20T04:46:25;63.72;;;28.20;;
32347;SDS011;18821;44.800;10.326;2022-11-20T04:48:52;60.83;;;26.02;;
32347;SDS011;18821;44.800;10.326;2022-11-20T04:51:18;55.88;;;26.02;;
32347;SDS011;18821;44.800;10.326;2022-11-20T04:53:45;59.70;;;26.15;;
32347;SDS011;18821;44.800;10.326;2022-11-20T04:56:11;56.58;;;24.02;;
32347;SDS011;18821;44.800;10.326;2022-11-20T04:58:38;60.08;;;25.77;;
32347;SDS011;18821;44.800;10.326;2022-11-20T05:01:09;61.35;;;24.83;;
32347;SDS011;18821;44.800;10.326;2022-11-20T05:03:41;60.10;;;25.67;;
32347;SDS011;18821;44.800;10.326;2022-11-20T05:06:08;52.53;;;24.60;;
32347;SDS011;18821;44.800;10.326;2022-11-20T05:08:36;64.82;;;26.38;;
32347;SDS011;18821;44.800;10.326;2022-11-20T05:11:02;62.60;;;26.65;;
32347;SDS011;18821;44.800;10.326;2022-11-20T05:13:30;62.67;;;26.10;;
32347;SDS011;18821;44.800;10.326;2022-11-20T05:16:00;66.75;;;26.98;;
32347;SDS011;18821;44.800;10.326;2022-11-20T05:18:28;65.63;;;26.38;;
32347;SDS011;18821;44.800;10.326;2022-11-20T05:20:55;67.88;;;27.50;;
32347;SDS011;18821;44.800;10.326;2022-11-20T05:23:23;68.97;;;27.50;;
32347;SDS011;18821;44.800;10.326;2022-11-20T05:25:53;68.00;;;27.35;;
32347;SDS011;18821;44.800;10.326;2022-11-20T05:28:20;62.30;;;27.10;;
32347;SDS011;18821;44.800;10.326;2022-11-20T05:30:46;64.40;;;27.15;;
32347;SDS011;18821;44.800;10.326;2022-11-20T05:33:12;68.07;;;29.30;;
32347;SDS011;18821;44.800;10.326;2022-11-20T05:35:39;73.13;;;26.67;;
32347;SDS011;18821;44.800;10.326;2022-11-20T05:38:05;71.75;;;28.38;;
32347;SDS011;18821;44.800;10.326;2022-11-20T05:40:31;73.25;;;30.08;;
32347;SDS011;18821;44.800;10.326;2022-11-20T05:42:57;64.30;;;27.88;;
32347;SDS011;18821;44.800;10.326;2022-11-20T05:45:23;59.70;;;27.15;;
32347;SDS011;18821;44.800;10.326;2022-11-20T05:47:49;61.47;;;24.65;;
32347;SDS011;18821;44.800;10.326;2022-11-20T05:50:15;61.80;;;26.02;;
32347;SDS011;18821;44.800;10.326;2022-11-20T05:52:41;57.65;;;25.88;;
32347;SDS011;18821;44.800;10.326;2022-11-20T05:55:07;60.30;;;24.58;;
32347;SDS011;18821;44.800;10.326;2022-11-20T05:57:34;61.67;;;26.13;;
32347;SDS011;18821;44.800;10.326;2022-11-20T05:59:59;56.40;;;26.85;;
32347;SDS011;18821;44.800;10.326;2022-11-20T06:02:26;64.40;;;25.25;;
32347;SDS011;18821;44.800;10.326;2022-11-20T06:04:53;53.92;;;23.88;;
32347;SDS011;18821;44.800;10.326;2022-11-20T06:07:19;61.20;;;25.08;;
32347;SDS011;18821;44.800;10.326;2022-11-20T06:09:44;63.22;;;25.60;;
32347;SDS011;18821;44.800;10.326;2022-11-20T06:12:10;59.42;;;25.38;;
32347;SDS011;18821;44.800;10.326;2022-11-20T06:14:36;63.45;;;25.15;;
32347;SDS011;18821;44.800;10.326;2022-11-20T06:17:02;60.45;;;25.05;;
32347;SDS011;18821;44.800;10.326;2022-11-20T06:19:28;68.35;;;23.75;;
32347;SDS011;18821;44.800;10.326;2022-11-20T06:21:54;63.17;;;25.35;;
32347;SDS011;18821;44.800;10.326;2022-11-20T06:24:20;66.43;;;26.88;;
32347;SDS011;18821;44.800;10.326;2022-11-20T06:26:45;62.85;;;25.88;;
32347;SDS011;18821;44.800;10.326;2022-11-20T06:29:11;68.25;;;27.13;;
32347;SDS011;18821;44.800;10.326;2022-11-20T06:31:37;68.82;;;27.90;;
32347;SDS011;18821;44.800;10.326;2022-11-20T06:34:04;68.35;;;26.02;;
32347;SDS011;18821;44.800;10.326;2022-11-20T06:36:31;69.45;;;28.17;;
32347;SDS011;18821;44.800;10.326;2022-11-20T06:38:57;63.33;;;26.88;;
32347;SDS011;18821;44.800;10.326;2022-11-20T06:41:24;62.92;;;26.40;;
32347;SDS011;18821;44.800;10.326;2022-11-20T06:43:50;63.35;;;25.10;;
32347;SDS011;18821;44.800;10.326;2022-11-20T06:46:17;57.33;;;24.85;;
32347;SDS011;18821;44.800;10.326;2022-11-20T06:48:44;57.03;;;25.35;;
32347;SDS011;18821;44.800;10.326;2022-11-20T06:51:11;61.53;;;25.92;;
32347;SDS011;18821;44.800;10.326;2022-11-20T06:53:37;64.70;;;26.65;;
32347;SDS011;18821;44.800;10.326;2022-11-20T06:56:03;66.80;;;26.77;;
32347;SDS011;18821;44.800;10.326;2022-11-20T06:58:31;60.85;;;26.33;;
32347;SDS011;18821;44.800;10.326;2022-11-20T07:01:06;52.63;;;22.92;;
32347;SDS011;18821;44.800;10.326;2022-11-20T07:03:36;53.35;;;23.30;;
32347;SDS011;18821;44.800;10.326;2022-11-20T07:06:03;50.55;;;21.33;;
32347;SDS011;18821;44.800;10.326;2022-11-20T07:08:30;53.70;;;22.52;;
32347;SDS011;18821;44.800;10.326;2022-11-20T07:10:57;56.53;;;22.45;;
32347;SDS011;18821;44.800;10.326;2022-11-20T07:13:25;56.53;;;22.80;;
32347;SDS011;18821;44.800;10.326;2022-11-20T07:15:51;48.70;;;22.55;;
32347;SDS011;18821;44.800;10.326;2022-11-20T07:18:17;52.80;;;21.85;;
32347;SDS011;18821;44.800;10.326;2022-11-20T07:20:43;56.15;;;22.77;;
32347;SDS011;18821;44.800;10.326;2022-11-20T07:23:09;58.85;;;24.33;;
32347;SDS011;18821;44.800;10.326;2022-11-20T07:25:35;56.40;;;23.02;;
32347;SDS011;18821;44.800;10.326;2022-11-20T07:28:02;54.22;;;21.52;;
32347;SDS011;18821;44.800;10.326;2022-11-20T07:30:29;54.08;;;24.10;;
32347;SDS011;18821;44.800;10.326;2022-11-20T07:32:55;59.33;;;23.70;;
32347;SDS011;18821;44.800;10.326;2022-11-20T07:35:22;74.68;;;29.67;;
32347;SDS011;18821;44.800;10.326;2022-11-20T07:37:49;67.55;;;27.23;;
32347;SDS011;18821;44.800;10.326;2022-11-20T07:40:16;71.28;;;28.85;;
32347;SDS011;18821;44.800;10.326;2022-11-20T07:42:51;76.35;;;28.10;;
32347;SDS011;18821;44.800;10.326;2022-11-20T07:45:18;81.13;;;28.27;;
32347;SDS011;18821;44.800;10.326;2022-11-20T07:47:45;68.60;;;26.65;;
32347;SDS011;18821;44.800;10.326;2022-11-20T07:50:11;78.80;;;28.17;;
32347;SDS011;18821;44.800;10.326;2022-11-20T07:52:37;74.28;;;28.00;;
32347;SDS011;18821;44.800;10.326;2022-11-20T07:55:04;127.88;;;31.25;;
32347;SDS011;18821;44.800;10.326;2022-11-20T07:57:30;124.40;;;31.45;;
32347;SDS011;18821;44.800;10.326;2022-11-20T07:59:56;358.98;;;36.13;;
32347;SDS011;18821;44.800;10.326;2022-11-20T08:02:22;103.63;;;35.22;;
32347;SDS011;18821;44.800;10.326;2022-11-20T08:04:48;101.63;;;35.20;;
32347;SDS011;18821;44.800;10.326;2022-11-20T08:07:14;100.20;;;35.65;;
32347;SDS011;18821;44.800;10.326;2022-11-20T08:09:40;98.85;;;35.10;;
32347;SDS011;18821;44.800;10.326;2022-11-20T08:12:06;103.00;;;33.97;;
32347;SDS011;18821;44.800;10.326;2022-11-20T08:14:50;91.15;;;36.35;;
32347;SDS011;18821;44.800;10.326;2022-11-20T08:17:16;85.30;;;31.83;;
32347;SDS011;18821;44.800;10.326;2022-11-20T08:19:42;94.25;;;34.83;;
32347;SDS011;18821;44.800;10.326;2022-11-20T08:22:08;103.90;;;36.72;;
32347;SDS011;18821;44.800;10.326;2022-11-20T08:24:34;96.40;;;38.45;;
32347;SDS011;18821;44.800;10.326;2022-11-20T08:27:00;118.00;;;39.60;;
32347;SDS011;18821;44.800;10.326;2022-11-20T08:29:26;303.23;;;41.33;;
32347;SDS011;18821;44.800;10.326;2022-11-20T08:31:52;368.55;;;44.55;;
32347;SDS011;18821;44.800;10.326;2022-11-20T08:34:18;190.18;;;38.58;;
32347;SDS011;18821;44.800;10.326;2022-11-20T08:36:44;233.07;;;40.70;;
32347;SDS011;18821;44.800;10.326;2022-11-20T08:39:11;204.25;;;40.03;;
32347;SDS011;18821;44.800;10.326;2022-11-20T08:41:38;234.43;;;41.97;;
32347;SDS011;18821;44.800;10.326;2022-11-20T08:44:05;183.15;;;41.80;;
32347;SDS011;18821;44.800;10.326;2022-11-20T08:46:36;118.45;;;40.65;;
32347;SDS011;18821;44.800;10.326;2022-11-20T08:49:04;99.82;;;37.85;;
32347;SDS011;18821;44.800;10.326;2022-11-20T08:51:32;84.53;;;36.70;;
32347;SDS011;18821;44.800;10.326;2022-11-20T08:53:58;147.20;;;36.90;;
32347;SDS011;18821;44.800;10.326;2022-11-20T08:56:24;116.25;;;31.25;;
32347;SDS011;18821;44.800;10.326;2022-11-20T08:58:50;158.40;;;33.95;;
32347;SDS011;18821;44.800;10.326;2022-11-20T09:01:18;150.57;;;31.60;;
32347;SDS011;18821;44.800;10.326;2022-11-20T09:03:45;108.40;;;35.20;;
32347;SDS011;18821;44.800;10.326;2022-11-20T09:06:11;137.63;;;36.80;;
32347;SDS011;18821;44.800;10.326;2022-11-20T09:08:37;102.28;;;37.65;;
32347;SDS011;18821;44.800;10.326;2022-11-20T09:11:03;125.65;;;36.97;;
32347;SDS011;18821;44.800;10.326;2022-11-20T09:13:30;85.40;;;37.60;;
32347;SDS011;18821;44.800;10.326;2022-11-20T09:15:58;80.00;;;36.35;;
32347;SDS011;18821;44.800;10.326;2022-11-20T09:18:26;94.75;;;37.78;;
32347;SDS011;18821;44.800;10.326;2022-11-20T09:20:57;87.13;;;37.15;;
32347;SDS011;18821;44.800;10.326;2022-11-20T09:23:24;75.10;;;33.58;;
32347;SDS011;18821;44.800;10.326;2022-11-20T09:25:51;76.97;;;34.00;;
32347;SDS011;18821;44.800;10.326;2022-11-20T09:28:18;72.53;;;32.80;;
32347;SDS011;18821;44.800;10.326;2022-11-20T09:30:44;67.05;;;31.77;;
32347;SDS011;18821;44.800;10.326;2022-11-20T09:33:10;71.47;;;32.38;;
32347;SDS011;18821;44.800;10.326;2022-11-20T09:35:36;80.00;;;33.10;;
32347;SDS011;18821;44.800;10.326;2022-11-20T09:38:08;74.03;;;32.35;;
32347;SDS011;18821;44.800;10.326;2022-11-20T09:40:36;78.03;;;32.92;;
32347;SDS011;18821;44.800;10.326;2022-11-20T09:54:17;66.72;;;28.30;;
32347;SDS011;18821;44.800;10.326;2022-11-20T09:56:49;69.05;;;30.58;;
32347;SDS011;18821;44.800;10.326;2022-11-20T09:59:29;87.45;;;35.55;;
32347;SDS011;18821;44.800;10.326;2022-11-20T10:05:18;81.20;;;35.90;;
32347;SDS011;18821;44.800;10.326;2022-11-20T10:07:54;93.78;;;37.17;;
32347;SDS011;18821;44.800;10.326;2022-11-20T10:13:31;82.13;;;35.30;;
32347;SDS011;18821;44.800;10.326;2022-11-20T10:16:30;75.38;;;35.00;;
32347;SDS011;18821;44.800;10.326;2022-11-20T10:25:08;79.03;;;35.03;;
32347;SDS011;18821;44.800;10.326;2022-11-20T10:30:31;75.53;;;35.33;;
32347;SDS011;18821;44.800;10.326;2022-11-20T10:33:04;86.78;;;37.72;;
32347;SDS011;18821;44.800;10.326;2022-11-20T10:39:01;78.47;;;36.78;;
32347;SDS011;18821;44.800;10.326;2022-11-20T10:41:33;84.63;;;36.45;;
32347;SDS011;18821;44.800;10.326;2022-11-20T10:44:09;83.75;;;38.70;;
32347;SDS011;18821;44.800;10.326;2022-11-20T10:47:14;81.40;;;34.58;;
32347;SDS011;18821;44.800;10.326;2022-11-20T10:49:41;87.93;;;38.40;;
32347;SDS011;18821;44.800;10.326;2022-11-20T10:54:47;83.90;;;37.85;;
32347;SDS011;18821;44.800;10.326;2022-11-20T11:00:10;86.28;;;37.67;;
32347;SDS011;18821;44.800;10.326;2022-11-20T11:02:43;81.68;;;37.15;;
32347;SDS011;18821;44.800;10.326;2022-11-20T11:05:34;101.55;;;40.45;;
32347;SDS011;18821;44.800;10.326;2022-11-20T11:08:15;97.57;;;40.33;;
32347;SDS011;18821;44.800;10.326;2022-11-20T11:13:29;94.30;;;42.28;;
32347;SDS011;18821;44.800;10.326;2022-11-20T11:15:56;92.50;;;39.10;;
32347;SDS011;18821;44.800;10.326;2022-11-20T11:18:27;92.45;;;41.35;;
32347;SDS011;18821;44.800;10.326;2022-11-20T11:20:54;112.43;;;44.75;;
32347;SDS011;18821;44.800;10.326;2022-11-20T11:23:40;105.47;;;43.83;;
32347;SDS011;18821;44.800;10.326;2022-11-20T11:26:23;99.78;;;42.20;;
32347;SDS011;18821;44.800;10.326;2022-11-20T11:28:56;97.72;;;43.45;;
32347;SDS011;18821;44.800;10.326;2022-11-20T11:31:32;99.43;;;43.65;;
32347;SDS011;18821;44.800;10.326;2022-11-20T11:34:03;92.07;;;41.78;;
32347;SDS011;18821;44.800;10.326;2022-11-20T11:36:32;89.05;;;40.00;;
32347;SDS011;18821;44.800;10.326;2022-11-20T11:38:59;95.85;;;40.80;;
32347;SDS011;18821;44.800;10.326;2022-11-20T11:41:31;93.07;;;38.88;;
32347;SDS011;18821;44.800;10.326;2022-11-20T11:44:03;88.07;;;40.58;;
32347;SDS011;18821;44.800;10.326;2022-11-20T11:47:03;81.28;;;34.78;;
32347;SDS011;18821;44.800;10.326;2022-11-20T11:49:35;86.68;;;39.75;;
32347;SDS011;18821;44.800;10.326;2022-11-20T11:55:01;80.93;;;37.15;;
32347;SDS011;18821;44.800;10.326;2022-11-20T12:02:39;90.43;;;38.88;;
32347;SDS011;18821;44.800;10.326;2022-11-20T12:05:14;86.65;;;39.50;;
32347;SDS011;18821;44.800;10.326;2022-11-20T12:15:48;86.35;;;40.70;;
32347;SDS011;18821;44.800;10.326;2022-11-20T12:18:15;81.20;;;39.13;;
32347;SDS011;18821;44.800;10.326;2022-11-20T12:20:45;82.07;;;39.40;;
32347;SDS011;18821;44.800;10.326;2022-11-20T12:29:31;82.57;;;38.38;;
32347;SDS011;18821;44.800;10.326;2022-11-20T12:37:37;86.47;;;39.80;;
32347;SDS011;18821;44.800;10.326;2022-11-20T12:43:02;79.10;;;37.55;;
32347;SDS011;18821;44.800;10.326;2022-11-20T13:14:12;82.55;;;40.20;;
32347;SDS011;18821;44.800;10.326;2022-11-20T13:19:24;97.93;;;39.22;;
32347;SDS011;18821;44.800;10.326;2022-11-20T13:21:52;81.15;;;40.30;;
32347;SDS011;18821;44.800;10.326;2022-11-20T13:26:44;83.85;;;37.75;;
32347;SDS011;18821;44.800;10.326;2022-11-20T13:29:17;87.93;;;40.22;;
32347;SDS011;18821;44.800;10.326;2022-11-20T13:31:44;87.93;;;38.85;;
32347;SDS011;18821;44.800;10.326;2022-11-20T13:34:24;79.80;;;37.50;;
32347;SDS011;18821;44.800;10.326;2022-11-20T13:36:57;80.88;;;38.08;;
32347;SDS011;18821;44.800;10.326;2022-11-20T13:39:35;78.72;;;37.17;;
32347;SDS011;18821;44.800;10.326;2022-11-20T13:42:03;81.53;;;39.05;;
32347;SDS011;18821;44.800;10.326;2022-11-20T13:44:51;78.50;;;37.33;;
32347;SDS011;18821;44.800;10.326;2022-11-20T13:47:20;83.60;;;37.13;;
32347;SDS011;18821;44.800;10.326;2022-11-20T13:49:50;80.13;;;36.75;;
32347;SDS011;18821;44.800;10.326;2022-11-20T14:00:29;81.40;;;38.13;;
32347;SDS011;18821;44.800;10.326;2022-11-20T14:03:00;74.57;;;36.95;;
32347;SDS011;18821;44.800;10.326;2022-11-20T14:05:38;80.57;;;38.65;;
32347;SDS011;18821;44.800;10.326;2022-11-20T14:08:16;77.38;;;37.83;;
32347;SDS011;18821;44.800;10.326;2022-11-20T14:11:03;77.47;;;37.38;;
32347;SDS011;18821;44.800;10.326;2022-11-20T14:15:57;83.57;;;38.30;;
32347;SDS011;18821;44.800;10.326;2022-11-20T14:18:25;77.35;;;38.75;;
32347;SDS011;18821;44.800;10.326;2022-11-20T14:20:51;74.18;;;37.95;;
32347;SDS011;18821;44.800;10.326;2022-11-20T14:23:24;75.88;;;36.13;;
32347;SDS011;18821;44.800;10.326;2022-11-20T14:25:51;74.30;;;37.08;;
32347;SDS011;18821;44.800;10.326;2022-11-20T14:28:24;72.95;;;35.55;;
32347;SDS011;18821;44.800;10.326;2022-11-20T14:30:54;77.45;;;37.35;;
32347;SDS011;18821;44.800;10.326;2022-11-20T14:33:22;73.68;;;37.03;;
32347;SDS011;18821;44.800;10.326;2022-11-20T14:35:51;80.70;;;38.35;;
32347;SDS011;18821;44.800;10.326;2022-11-20T14:38:21;77.72;;;37.83;;
32347;SDS011;18821;44.800;10.326;2022-11-20T14:40:50;81.72;;;38.85;;
32347;SDS011;18821;44.800;10.326;2022-11-20T14:45:49;78.35;;;40.17;;
32347;SDS011;18821;44.800;10.326;2022-11-20T14:48:48;85.68;;;37.45;;
32347;SDS011;18821;44.800;10.326;2022-11-20T14:51:35;83.28;;;39.97;;
32347;SDS011;18821;44.800;10.326;2022-11-20T14:56:35;80.60;;;39.17;;
32347;SDS011;18821;44.800;10.326;2022-11-20T14:59:01;84.38;;;39.67;;
32347;SDS011;18821;44.800;10.326;2022-11-20T15:01:28;84.05;;;40.83;;
32347;SDS011;18821;44.800;10.326;2022-11-20T15:04:13;92.55;;;41.92;;
32347;SDS011;18821;44.800;10.326;2022-11-20T15:06:48;88.63;;;42.42;;
32347;SDS011;18821;44.800;10.326;2022-11-20T15:09:16;88.13;;;41.10;;
32347;SDS011;18821;44.800;10.326;2022-11-20T15:11:50;91.43;;;43.17;;
32347;SDS011;18821;44.800;10.326;2022-11-20T15:14:22;88.25;;;42.92;;
32347;SDS011;18821;44.800;10.326;2022-11-20T15:16:49;94.93;;;43.53;;
32347;SDS011;18821;44.800;10.326;2022-11-20T15:19:23;88.78;;;41.83;;
32347;SDS011;18821;44.800;10.326;2022-11-20T15:21:50;97.18;;;43.53;;
32347;SDS011;18821;44.800;10.326;2022-11-20T15:24:16;97.93;;;43.72;;
32347;SDS011;18821;44.800;10.326;2022-11-20T15:26:42;101.53;;;45.17;;
32347;SDS011;18821;44.800;10.326;2022-11-20T15:29:13;99.93;;;46.17;;
32347;SDS011;18821;44.800;10.326;2022-11-20T15:34:11;92.55;;;43.92;;
32347;SDS011;18821;44.800;10.326;2022-11-20T15:36:41;91.85;;;44.33;;
32347;SDS011;18821;44.800;10.326;2022-11-20T15:39:09;100.65;;;42.92;;
32347;SDS011;18821;44.800;10.326;2022-11-20T15:41:36;99.43;;;44.78;;
32347;SDS011;18821;44.800;10.326;2022-11-20T15:44:03;90.35;;;43.58;;
32347;SDS011;18821;44.800;10.326;2022-11-20T15:46:33;93.35;;;43.70;;
32347;SDS011;18821;44.800;10.326;2022-11-20T15:49:03;92.13;;;45.17;;
32347;SDS011;18821;44.800;10.326;2022-11-20T15:51:31;89.00;;;44.28;;
32347;SDS011;18821;44.800;10.326;2022-11-20T15:54:19;94.18;;;44.35;;
32347;SDS011;18821;44.800;10.326;2022-11-20T15:56:47;99.00;;;45.60;;
32347;SDS011;18821;44.800;10.326;2022-11-20T15:59:13;95.43;;;45.03;;
32347;SDS011;18821;44.800;10.326;2022-11-20T16:01:42;90.05;;;43.70;;
32347;SDS011;18821;44.800;10.326;2022-11-20T16:04:11;92.50;;;44.95;;
32347;SDS011;18821;44.800;10.326;2022-11-20T16:06:39;93.75;;;43.47;;
32347;SDS011;18821;44.800;10.326;2022-11-20T16:09:05;95.03;;;45.55;;
32347;SDS011;18821;44.800;10.326;2022-11-20T16:11:31;101.53;;;46.40;;
32347;SDS011;18821;44.800;10.326;2022-11-20T16:13:57;96.13;;;44.88;;
32347;SDS011;18821;44.800;10.326;2022-11-20T16:16:42;97.78;;;44.63;;
32347;SDS011;18821;44.800;10.326;2022-11-20T16:19:10;98.35;;;45.83;;
32347;SDS011;18821;44.800;10.326;2022-11-20T16:21:37;103.60;;;48.42;;
32347;SDS011;18821;44.800;10.326;2022-11-20T16:24:05;96.25;;;46.20;;
32347;SDS011;18821;44.800;10.326;2022-11-20T16:26:32;100.47;;;46.85;;
32347;SDS011;18821;44.800;10.326;2022-11-20T16:28:59;103.40;;;47.78;;
32347;SDS011;18821;44.800;10.326;2022-11-20T16:31:26;102.85;;;49.13;;
32347;SDS011;18821;44.800;10.326;2022-11-20T16:33:52;96.95;;;44.03;;